| time (UTC) | temp F | wind direction | speed MPH | gust MPH | rain 1hr in | rain 24hr in | rain mn in | humidity % | barometer mb |
| 20260507200604 | 52 | 295 | 1.0 | 5.0 | 0.00 | 0.00 | 0.00 | 1011.5 | |
| 20260507195605 | 52 | 296 | 1.0 | 2.0 | 0.00 | 0.00 | 0.00 | 1011.3 | |
| 20260507195104 | 52 | 295 | 2.0 | 2.0 | 0.00 | 0.00 | 0.00 | 1011.3 | |
| 20260507194604 | 52 | 296 | 2.0 | 2.0 | 0.00 | 0.00 | 0.00 | 1011.3 | |
| 20260507194104 | 52 | 296 | 3.0 | 5.0 | 0.00 | 0.00 | 0.00 | 1011.3 | |
| 20260507193603 | 52 | 296 | 2.0 | 2.0 | 0.00 | 0.00 | 0.00 | 1011.3 | |
| 20260507192104 | 53 | 298 | 1.0 | 2.0 | 0.00 | 0.00 | 0.00 | 1011.3 | |
| 20260507191604 | 53 | 298 | 0.0 | 2.0 | 0.00 | 0.00 | 0.00 | 1011.3 | |
| 20260507191103 | 53 | 297 | 1.0 | 2.0 | 0.00 | 0.00 | 0.00 | 1011.3 | |
| 20260507190604 | 54 | 299 | 0.0 | 0.0 | 0.00 | 0.00 | 0.00 | 1011.3 | |
| 20260507190105 | 54 | 299 | 0.0 | 0.0 | 0.00 | 0.00 | 0.00 | 1011.2 | |
| 20260507185603 | 54 | 300 | 0.0 | 0.0 | 0.00 | 0.00 | 0.00 | 1011.2 | |
| 20260507185104 | 54 | 300 | 0.0 | 0.0 | 0.00 | 0.00 | 0.00 | 1011.2 | |
| 20260507184604 | 54 | 301 | 0.0 | 0.0 | 0.00 | 0.00 | 0.00 | 1011.2 | |
| 20260507184104 | 54 | 301 | 0.0 | 0.0 | 0.00 | 0.00 | 0.00 | 1011.2 | |
| 20260507183604 | 55 | 302 | 0.0 | 2.0 | 0.00 | 0.00 | 0.00 | 1011.2 | |
| 20260507183104 | 55 | 302 | 1.0 | 5.0 | 0.00 | 0.00 | 0.00 | 1011.2 | |
| 20260507182604 | 55 | 303 | 3.0 | 5.0 | 0.00 | 0.00 | 0.00 | 1011.2 | |
| 20260507182104 | 55 | 303 | 2.0 | 5.0 | 0.00 | 0.00 | 0.00 | 1011.2 | |
| 20260507181105 | 55 | 304 | 2.0 | 2.0 | 0.00 | 0.00 | 0.00 | 1011.2 | |
| 20260507180604 | 56 | 303 | 0.0 | 5.0 | 0.00 | 0.00 | 0.00 | 1011.2 | |
| 20260507175603 | 56 | 306 | 2.0 | 2.0 | 0.00 | 0.00 | 0.00 | 1011.2 | |
| 20260507175104 | 56 | 306 | 5.0 | 5.0 | 0.00 | 0.00 | 0.00 | 1011.2 | |
| 20260507174603 | 56 | 305 | 0.0 | 5.0 | 0.00 | 0.00 | 0.00 | 1011.2 | |
| 20260507174105 | 57 | 307 | 3.0 | 5.0 | 0.00 | 0.00 | 0.00 | 1011.2 | |
| 20260507173604 | 57 | 308 | 3.0 | 5.0 | 0.00 | 0.00 | 0.00 | 1011.2 | |
| 20260507173104 | 57 | 306 | 1.0 | 2.0 | 0.00 | 0.00 | 0.00 | 1011.2 | |
| 20260507172104 | 57 | 309 | 0.0 | 0.0 | 0.00 | 0.00 | 0.00 | 1011.2 | |
| 20260507171604 | 57 | 310 | 0.0 | 0.0 | 0.00 | 0.00 | 0.00 | 1011.2 | |
| 20260507171104 | 57 | 310 | 0.0 | 0.0 | 0.00 | 0.00 | 0.00 | 1011.2 | |
| 20260507170603 | 57 | 311 | 0.0 | 0.0 | 0.00 | 0.00 | 0.00 | 1011.2 | |
| 20260507170104 | 58 | 311 | 0.0 | 0.0 | 0.00 | 0.00 | 0.00 | 1011.6 | |
| 20260507165604 | 58 | 310 | 0.0 | 0.0 | 0.00 | 0.00 | 0.00 | 1011.6 | |
| 20260507165104 | 58 | 313 | 0.0 | 2.0 | 0.00 | 0.00 | 0.00 | 1011.6 | |
| 20260507164604 | 58 | 313 | 2.0 | 2.0 | 0.00 | 0.00 | 0.00 | 1011.6 | |
| 20260507164104 | 58 | 313 | 0.0 | 2.0 | 0.00 | 0.00 | 0.00 | 1011.6 | |
| 20260507163603 | 58 | 315 | 1.0 | 2.0 | 0.00 | 0.00 | 0.00 | 1011.6 | |
| 20260507163104 | 58 | 316 | 0.0 | 0.0 | 0.00 | 0.00 | 0.00 | 1011.6 | |
| 20260507162604 | 58 | 317 | 1.0 | 2.0 | 0.00 | 0.00 | 0.00 | 1011.6 | |
| 20260507162104 | 59 | 318 | 1.0 | 2.0 | 0.00 | 0.00 | 0.00 | 1011.6 | |
| 20260507161104 | 59 | 316 | 0.0 | 2.0 | 0.00 | 0.00 | 0.00 | 1011.6 | |
| 20260507160604 | 59 | 317 | 1.0 | 5.0 | 0.00 | 0.00 | 0.00 | 1011.6 | |
| 20260507160105 | 59 | 320 | 6.0 | 7.0 | 0.00 | 0.00 | 0.00 | 1011.8 | |
| 20260507155606 | 59 | 320 | 3.0 | 5.0 | 0.00 | 0.00 | 0.00 | 1011.8 | |
| 20260507155104 | 59 | 322 | 5.0 | 5.0 | 0.00 | 0.00 | 0.00 | 1011.8 | |
| 20260507154604 | 59 | 322 | 3.0 | 5.0 | 0.00 | 0.00 | 0.00 | 1011.8 | |
| 20260507153604 | 59 | 322 | 5.0 | 5.0 | 0.00 | 0.00 | 0.00 | 1011.8 | |
| 20260507153106 | 59 | 322 | 2.0 | 5.0 | 0.00 | 0.00 | 0.00 | 1011.8 | |
| 20260507152604 | 59 | 319 | 3.0 | 5.0 | 0.00 | 0.00 | 0.00 | 1011.8 | |
| 20260507152104 | 59 | 318 | 1.0 | 2.0 | 0.00 | 0.00 | 0.00 | 1011.8 | |
| 20260507151604 | 59 | 319 | 3.0 | 7.0 | 0.00 | 0.00 | 0.00 | 1011.8 | |
| 20260507151104 | 59 | 319 | 6.0 | 7.0 | 0.00 | 0.00 | 0.00 | 1011.8 | |
| 20260507150104 | 59 | 320 | 1.0 | 5.0 | 0.00 | 0.00 | 0.00 | 1012.3 | |
| 20260507145604 | 59 | 317 | 7.0 | 7.0 | 0.00 | 0.00 | 0.00 | 1012.3 | |
| 20260507144604 | 58 | 316 | 5.0 | 5.0 | 0.00 | 0.00 | 0.00 | 1012.3 | |
| 20260507144104 | 58 | 318 | 2.0 | 7.0 | 0.00 | 0.00 | 0.00 | 1012.3 | |
| 20260507143103 | 58 | 316 | 3.0 | 5.0 | 0.00 | 0.00 | 0.00 | 1012.3 | |
| 20260507142604 | 58 | 315 | 5.0 | 5.0 | 0.00 | 0.00 | 0.00 | 1012.3 | |
| 20260507142104 | 58 | 315 | 6.0 | 7.0 | 0.00 | 0.00 | 0.00 | 1012.3 | |
| 20260507141604 | 58 | 314 | 5.0 | 7.0 | 0.00 | 0.00 | 0.00 | 1012.3 | |
| 20260507141104 | 58 | 313 | 0.0 | 5.0 | 0.00 | 0.00 | 0.00 | 1012.3 | |
| 20260507140104 | 57 | 310 | 5.0 | 7.0 | 0.00 | 0.00 | 0.00 | 1012.6 | |
| 20260507135604 | 57 | 310 | 3.0 | 5.0 | 0.00 | 0.00 | 0.00 | 1012.6 | |
| 20260507135104 | 57 | 308 | 5.0 | 7.0 | 0.00 | 0.00 | 0.00 | 1012.6 | |
| 20260507134605 | 56 | 308 | 6.0 | 7.0 | 0.00 | 0.00 | 0.00 | 1012.6 | |
| 20260507134104 | 56 | 307 | 7.0 | 7.0 | 0.00 | 0.00 | 0.00 | 1012.6 | |
| 20260507133604 | 56 | 306 | 2.0 | 2.0 | 0.00 | 0.00 | 0.00 | 1012.6 | |
| 20260507133105 | 55 | 306 | 2.0 | 5.0 | 0.00 | 0.00 | 0.00 | 1012.6 | |
| 20260507132604 | 55 | 304 | 3.0 | 5.0 | 0.00 | 0.00 | 0.00 | 1012.6 | |
| 20260507132105 | 54 | 303 | 5.0 | 7.0 | 0.00 | 0.00 | 0.00 | 1012.6 | |
| 20260507131604 | 54 | 303 | 5.0 | 5.0 | 0.00 | 0.00 | 0.00 | 1012.6 | |
| 20260507131104 | 54 | 303 | 5.0 | 7.0 | 0.00 | 0.00 | 0.00 | 1012.6 | |
| 20260507130604 | 54 | 303 | 5.0 | 7.0 | 0.00 | 0.00 | 0.00 | 1012.6 | |
| 20260507124605 | 54 | 304 | 2.0 | 7.0 | 0.00 | 0.00 | 0.00 | 1012.5 | |
| 20260507124104 | 54 | 304 | 3.0 | 7.0 | 0.00 | 0.00 | 0.00 | 1012.5 | |
| 20260507123104 | 54 | 304 | 5.0 | 9.0 | 0.00 | 0.00 | 0.00 | 1012.5 | |
| 20260507122604 | 54 | 305 | 7.0 | 9.0 | 0.00 | 0.00 | 0.00 | 1012.5 | |
| 20260507122104 | 53 | 304 | 8.0 | 9.0 | 0.00 | 0.00 | 0.00 | 1012.5 | |
| 20260507121605 | 53 | 306 | 2.0 | 5.0 | 0.00 | 0.00 | 0.00 | 1012.5 | |
| 20260507121104 | 53 | 307 | 6.0 | 7.0 | 0.00 | 0.00 | 0.00 | 1012.5 | |
| 20260507120604 | 54 | 307 | 3.0 | 5.0 | 0.00 | 0.00 | 0.00 | 1012.5 | |
| 20260507120104 | 54 | 309 | 7.0 | 7.0 | 0.00 | 0.00 | 0.00 | 1012.7 | |
| 20260507115603 | 54 | 309 | 7.0 | 7.0 | 0.00 | 0.00 | 0.00 | 1012.7 | |
| 20260507115105 | 54 | 310 | 5.0 | 7.0 | 0.00 | 0.00 | 0.00 | 1012.7 | |
| 20260507114603 | 55 | 312 | 5.0 | 7.0 | 0.00 | 0.00 | 0.00 | 1012.7 | |
| 20260507114104 | 55 | 312 | 7.0 | 7.0 | 0.00 | 0.00 | 0.00 | 1012.7 | |
| 20260507113106 | 55 | 315 | 3.0 | 7.0 | 0.00 | 0.00 | 0.00 | 1012.7 | |
| 20260507112603 | 56 | 315 | 3.0 | 7.0 | 0.00 | 0.00 | 0.00 | 1012.7 | |
| 20260507111104 | 57 | 316 | 6.0 | 7.0 | 0.00 | 0.00 | 0.00 | 1012.7 | |
| 20260507110604 | 56 | 314 | 7.0 | 7.0 | 0.00 | 0.00 | 0.00 | 1012.7 | |
| 20260507110104 | 56 | 314 | 2.0 | 7.0 | 0.00 | 0.00 | 0.00 | 1012.8 | |
| 20260507105604 | 56 | 314 | 3.0 | 5.0 | 0.00 | 0.00 | 0.00 | 1012.8 | |
| 20260507105105 | 56 | 313 | 3.0 | 5.0 | 0.00 | 0.00 | 0.00 | 1012.8 | |
| 20260507104604 | 55 | 312 | 3.0 | 7.0 | 0.00 | 0.00 | 0.00 | 1012.8 | |
| 20260507104106 | 55 | 312 | 5.0 | 7.0 | 0.00 | 0.00 | 0.00 | 1012.8 | |
| 20260507103603 | 55 | 313 | 6.0 | 7.0 | 0.00 | 0.00 | 0.00 | 1012.8 | |
| 20260507102103 | 55 | 312 | 6.0 | 7.0 | 0.00 | 0.00 | 0.00 | 1012.8 | |
| 20260507101604 | 55 | 313 | 3.0 | 7.0 | 0.00 | 0.00 | 0.00 | 1012.8 | |
| 20260507101104 | 55 | 311 | 6.0 | 7.0 | 0.00 | 0.00 | 0.00 | 1012.8 | |
| 20260507100604 | 55 | 312 | 6.0 | 7.0 | 0.00 | 0.00 | 0.00 | 1012.8 | |
| 20260507100104 | 55 | 312 | 5.0 | 7.0 | 0.00 | 0.00 | 0.00 | 1012.9 | |
| 20260507095604 | 55 | 310 | 8.0 | 9.0 | 0.00 | 0.00 | 0.00 | 1012.9 | |
| 20260507095104 | 55 | 311 | 3.0 | 7.0 | 0.00 | 0.00 | 0.00 | 1012.9 | |
| 20260507094604 | 55 | 310 | 6.0 | 7.0 | 0.00 | 0.00 | 0.00 | 1012.9 | |
| 20260507093604 | 55 | 310 | 2.0 | 2.0 | 0.00 | 0.00 | 0.00 | 1012.9 | |
| 20260507093104 | 55 | 309 | 6.0 | 7.0 | 0.00 | 0.00 | 0.00 | 1012.9 | |
| 20260507092605 | 55 | 308 | 5.0 | 5.0 | 0.00 | 0.00 | 0.00 | 1012.9 | |
| 20260507092103 | 54 | 307 | 5.0 | 7.0 | 0.00 | 0.00 | 0.00 | 1012.9 | |
| 20260507091604 | 54 | 306 | 3.0 | 5.0 | 0.00 | 0.00 | 0.00 | 1012.9 | |
| 20260507091104 | 54 | 305 | 5.0 | 7.0 | 0.00 | 0.00 | 0.00 | 1012.9 | |
| 20260507090105 | 53 | 304 | 5.0 | 5.0 | 0.00 | 0.00 | 0.00 | 1012.8 | |
| 20260507085603 | 53 | 303 | 3.0 | 7.0 | 0.00 | 0.00 | 0.00 | 1012.8 | |
| 20260507085104 | 53 | 303 | 2.0 | 5.0 | 0.00 | 0.00 | 0.00 | 1012.8 | |
| 20260507084605 | 53 | 302 | 7.0 | 7.0 | 0.00 | 0.00 | 0.00 | 1012.8 | |
| 20260507084103 | 53 | 301 | 5.0 | 5.0 | 0.00 | 0.00 | 0.00 | 1012.8 | |
| 20260507083604 | 53 | 301 | 2.0 | 5.0 | 0.00 | 0.00 | 0.00 | 1012.8 | |
| 20260507083103 | 52 | 300 | 5.0 | 5.0 | 0.00 | 0.00 | 0.00 | 1012.8 | |
| 20260507081603 | 52 | 297 | 2.0 | 2.0 | 0.00 | 0.00 | 0.00 | 1012.8 | |
| 20260507080604 | 51 | 297 | 5.0 | 5.0 | 0.00 | 0.00 | 0.00 | 1012.8 | |
| 20260507080106 | 51 | 295 | 2.0 | 5.0 | 0.00 | 0.00 | 0.00 | 1012.8 | |
| 20260507075603 | 50 | 295 | 2.0 | 5.0 | 0.00 | 0.00 | 0.00 | 1012.8 | |
| 20260507075103 | 50 | 295 | 3.0 | 7.0 | 0.00 | 0.00 | 0.00 | 1012.8 | |
| 20260507074604 | 50 | 294 | 5.0 | 7.0 | 0.00 | 0.00 | 0.00 | 1012.8 | |
| 20260507074104 | 50 | 293 | 5.0 | 5.0 | 0.00 | 0.00 | 0.00 | 1012.8 | |
| 20260507073106 | 49 | 291 | 1.0 | 2.0 | 0.00 | 0.00 | 0.00 | 1012.8 | |
| 20260507072603 | 48 | 291 | 3.0 | 5.0 | 0.00 | 0.00 | 0.00 | 1012.8 | |
| 20260507071104 | 47 | 289 | 0.0 | 0.0 | 0.00 | 0.00 | 0.00 | 1012.8 | |
| 20260507070604 | 47 | 288 | 0.0 | 2.0 | 0.00 | 0.00 | 0.00 | 1012.8 | |
| 20260507070106 | 46 | 288 | 2.0 | 2.0 | 0.00 | 0.00 | 0.00 | 1012.7 | |
| 20260507065604 | 46 | 287 | 0.0 | 2.0 | 0.00 | 0.00 | 0.00 | 1012.7 | |
| 20260507065104 | 45 | 287 | 2.0 | 2.0 | 0.00 | 0.00 | 0.00 | 1012.7 | |
| 20260507064604 | 45 | 286 | 1.0 | 2.0 | 0.00 | 0.00 | 0.00 | 1012.7 | |
| 20260507064103 | 45 | 285 | 0.0 | 0.0 | 0.00 | 0.00 | 0.00 | 1012.7 | |
| 20260507063605 | 44 | 285 | 0.0 | 2.0 | 0.00 | 0.00 | 0.00 | 1012.7 | |
| 20260507062604 | 44 | 285 | 1.0 | 2.0 | 0.00 | 0.00 | 0.00 | 1012.7 | |
| 20260507062104 | 44 | 284 | 0.0 | 2.0 | 0.00 | 0.00 | 0.00 | 1012.7 | |
| 20260507061604 | 43 | 285 | 2.0 | 2.0 | 0.00 | 0.00 | 0.00 | 1012.7 | |
| 20260507060603 | 43 | 284 | 2.0 | 2.0 | 0.00 | 0.00 | 0.00 | 1012.7 | |
| 20260507060106 | 43 | 284 | 0.0 | 2.0 | 0.00 | 0.00 | 0.00 | 1012.5 | |
| 20260507055104 | 42 | 284 | 0.0 | 0.0 | 0.00 | 0.00 | 0.00 | 1012.5 | |
| 20260507054604 | 42 | 284 | 0.0 | 2.0 | 0.00 | 0.00 | 0.00 | 1012.5 | |
| 20260507053604 | 42 | 283 | 2.0 | 2.0 | 0.00 | 0.00 | 0.00 | 1012.5 | |
| 20260507052604 | 42 | 283 | 0.0 | 0.0 | 0.00 | 0.00 | 0.00 | 1012.5 | |
| 20260507052105 | 42 | 283 | 0.0 | 0.0 | 0.00 | 0.00 | 0.00 | 1012.5 | |
| 20260507051604 | 42 | 283 | 0.0 | 0.0 | 0.00 | 0.00 | 0.00 | 1012.5 | |
| 20260507051104 | 42 | 283 | 0.0 | 0.0 | 0.00 | 0.00 | 0.00 | 1012.5 | |
| 20260507050604 | 42 | 283 | 2.0 | 2.0 | 0.00 | 0.00 | 0.00 | 1012.5 | |
| 20260507050103 | 42 | 283 | 2.0 | 2.0 | 0.00 | 0.00 | 0.00 | 1012.5 | |
| 20260507045604 | 42 | 283 | 0.0 | 2.0 | 0.00 | 0.00 | 0.00 | 1012.5 | |
| 20260507045104 | 42 | 283 | 0.0 | 2.0 | 0.00 | 0.00 | 0.00 | 1012.5 | |
| 20260507044103 | 42 | 283 | 0.0 | 0.0 | 0.00 | 0.00 | 0.00 | 1012.5 | |
| 20260507043604 | 42 | 283 | 0.0 | 0.0 | 0.00 | 0.00 | 0.00 | 1012.5 | |
| 20260507043104 | 42 | 283 | 0.0 | 2.0 | 0.00 | 0.00 | 0.00 | 1012.5 | |
| 20260507042604 | 42 | 283 | 0.0 | 2.0 | 0.00 | 0.00 | 0.00 | 1012.5 | |
| 20260507042105 | 42 | 283 | 2.0 | 2.0 | 0.00 | 0.00 | 0.00 | 1012.5 | |
| 20260507041604 | 42 | 283 | 2.0 | 2.0 | 0.00 | 0.00 | 0.00 | 1012.5 | |
| 20260507041103 | 42 | 283 | 2.0 | 2.0 | 0.00 | 0.00 | 0.00 | 1012.5 | |
| 20260507040104 | 42 | 283 | 1.0 | 2.0 | 0.00 | 0.00 | 0.00 | 1012.5 | |
| 20260507035604 | 42 | 283 | 2.0 | 2.0 | 0.00 | 0.00 | 0.00 | 1012.5 | |
| 20260507035103 | 42 | 283 | 2.0 | 2.0 | 0.00 | 0.00 | 0.00 | 1012.5 | |
| 20260507034605 | 42 | 283 | 0.0 | 0.0 | 0.00 | 0.00 | 0.00 | 1012.5 | |
| 20260507034104 | 42 | 283 | 0.0 | 0.0 | 0.00 | 0.00 | 0.00 | 1012.5 | |
| 20260507033104 | 42 | 283 | 0.0 | 0.0 | 0.00 | 0.00 | 0.00 | 1012.5 | |
| 20260507032605 | 42 | 283 | 0.0 | 0.0 | 0.00 | 0.00 | 0.00 | 1012.5 | |
| 20260507032105 | 42 | 284 | 0.0 | 0.0 | 0.00 | 0.00 | 0.00 | 1012.5 | |
| 20260507031604 | 42 | 284 | 0.0 | 0.0 | 0.00 | 0.00 | 0.00 | 1012.5 | |
| 20260507030604 | 43 | 284 | 2.0 | 2.0 | 0.00 | 0.00 | 0.00 | 1012.5 | |
| 20260507030105 | 43 | 284 | 2.0 | 2.0 | 0.00 | 0.00 | 0.00 | 1012.9 | |
| 20260507025604 | 43 | 284 | 5.0 | 5.0 | 0.00 | 0.00 | 0.00 | 1012.9 | |
| 20260507025104 | 43 | 284 | 2.0 | 2.0 | 0.00 | 0.00 | 0.00 | 1012.9 | |
| 20260507024104 | 43 | 284 | 2.0 | 2.0 | 0.00 | 0.00 | 0.00 | 1012.9 | |
| 20260507023604 | 43 | 284 | 2.0 | 5.0 | 0.00 | 0.00 | 0.00 | 1012.9 | |
| 20260507023104 | 43 | 284 | 2.0 | 2.0 | 0.00 | 0.00 | 0.00 | 1012.9 | |
| 20260507022604 | 43 | 284 | 3.0 | 5.0 | 0.00 | 0.00 | 0.00 | 1012.9 | |
| 20260507022104 | 43 | 284 | 3.0 | 5.0 | 0.00 | 0.00 | 0.00 | 1012.9 | |
| 20260507021604 | 43 | 284 | 2.0 | 2.0 | 0.00 | 0.00 | 0.00 | 1012.9 | |
| 20260507021104 | 43 | 284 | 2.0 | 5.0 | 0.00 | 0.00 | 0.00 | 1012.9 | |
| 20260507020605 | 43 | 284 | 5.0 | 5.0 | 0.00 | 0.00 | 0.00 | 1012.9 | |
| 20260507020105 | 43 | 284 | 5.0 | 5.0 | 0.00 | 0.00 | 0.00 | 1012.8 | |
| 20260507015603 | 43 | 284 | 2.0 | 2.0 | 0.00 | 0.00 | 0.00 | 1012.8 | |
| 20260507015105 | 43 | 284 | 2.0 | 2.0 | 0.00 | 0.00 | 0.00 | 1012.8 | |
| 20260507014604 | 43 | 284 | 2.0 | 2.0 | 0.00 | 0.00 | 0.00 | 1012.8 | |
| 20260507014104 | 43 | 284 | 5.0 | 5.0 | 0.00 | 0.00 | 0.00 | 1012.8 | |
| 20260507013604 | 43 | 284 | 2.0 | 2.0 | 0.00 | 0.00 | 0.00 | 1012.8 | |
| 20260507013104 | 43 | 284 | 3.0 | 5.0 | 0.00 | 0.00 | 0.00 | 1012.8 | |
| 20260507011604 | 43 | 284 | 3.0 | 5.0 | 0.00 | 0.00 | 0.00 | 1012.8 | |
| 20260507010604 | 43 | 284 | 2.0 | 2.0 | 0.00 | 0.00 | 0.00 | 1012.8 | |
| 20260507010104 | 43 | 284 | 2.0 | 5.0 | 0.00 | 0.00 | 0.00 | 1012.8 | |
| 20260507005604 | 43 | 284 | 2.0 | 2.0 | 0.00 | 0.00 | 0.00 | 1012.8 | |
| 20260507005104 | 43 | 284 | 2.0 | 2.0 | 0.00 | 0.00 | 0.00 | 1012.8 | |
| 20260507004603 | 43 | 284 | 3.0 | 5.0 | 0.00 | 0.00 | 0.00 | 1012.8 | |
| 20260507004104 | 43 | 284 | 3.0 | 5.0 | 0.00 | 0.00 | 0.00 | 1012.8 | |
| 20260507003604 | 43 | 284 | 2.0 | 2.0 | 0.00 | 0.00 | 0.00 | 1012.8 | |
| 20260507003104 | 43 | 284 | 2.0 | 5.0 | 0.00 | 0.00 | 0.00 | 1012.8 | |
| 20260507002604 | 43 | 284 | 2.0 | 2.0 | 0.00 | 0.00 | 0.00 | 1012.8 | |
| 20260507001104 | 43 | 284 | 2.0 | 2.0 | 0.00 | 0.00 | 0.00 | 1012.8 | |
| 20260507000604 | 43 | 284 | 2.0 | 5.0 | 0.00 | 0.00 | 0.00 | 1012.8 | |
| 20260507000104 | 44 | 284 | 2.0 | 5.0 | 0.00 | 0.00 | 0.00 | 1012.8 | |
| 20260506235605 | 44 | 284 | 0.0 | 2.0 | 0.00 | 0.00 | 0.00 | 1012.8 | |
| 20260506235104 | 44 | 284 | 2.0 | 2.0 | 0.00 | 0.00 | 0.00 | 1012.8 | |
| 20260506234604 | 44 | 284 | 0.0 | 2.0 | 0.00 | 0.00 | 0.00 | 1012.8 | |
| 20260506234104 | 44 | 284 | 1.0 | 2.0 | 0.00 | 0.00 | 0.00 | 1012.8 | |
| 20260506233604 | 44 | 284 | 0.0 | 0.0 | 0.00 | 0.00 | 0.00 | 1012.8 | |
| 20260506232603 | 44 | 284 | 0.0 | 5.0 | 0.00 | 0.00 | 0.00 | 1012.8 | |
| 20260506231604 | 44 | 284 | 3.0 | 5.0 | 0.00 | 0.00 | 0.00 | 1012.8 | |
| 20260506231104 | 44 | 284 | 2.0 | 5.0 | 0.00 | 0.00 | 0.00 | 1012.8 | |
| 20260506230603 | 44 | 285 | 2.0 | 5.0 | 0.00 | 0.00 | 0.00 | 1012.8 | |
| 20260506225604 | 44 | 285 | 3.0 | 5.0 | 0.00 | 0.00 | 0.00 | 1012.7 | |
| 20260506225103 | 44 | 285 | 2.0 | 7.0 | 0.00 | 0.00 | 0.00 | 1012.7 | |
| 20260506224604 | 45 | 285 | 6.0 | 7.0 | 0.00 | 0.00 | 0.00 | 1012.7 | |
| 20260506222604 | 45 | 285 | 5.0 | 7.0 | 0.00 | 0.00 | 0.00 | 1012.7 | |
| 20260506222104 | 45 | 285 | 2.0 | 7.0 | 0.00 | 0.00 | 0.00 | 1012.7 | |
| 20260506221603 | 45 | 285 | 2.0 | 7.0 | 0.00 | 0.00 | 0.00 | 1012.7 | |
| 20260506221104 | 45 | 285 | 5.0 | 7.0 | 0.00 | 0.00 | 0.00 | 1012.7 | |
| 20260506215606 | 45 | 286 | 2.0 | 5.0 | 0.00 | 0.00 | 0.00 | 1012.6 | |
| 20260506215104 | 45 | 286 | 5.0 | 5.0 | 0.00 | 0.00 | 0.00 | 1012.6 | |
| 20260506214604 | 46 | 287 | 2.0 | 5.0 | 0.00 | 0.00 | 0.00 | 1012.6 | |
| 20260506214103 | 46 | 287 | 1.0 | 2.0 | 0.00 | 0.00 | 0.00 | 1012.6 | |
| 20260506213604 | 46 | 287 | 2.0 | 2.0 | 0.00 | 0.00 | 0.00 | 1012.6 | |
| 20260506213103 | 46 | 287 | 3.0 | 5.0 | 0.00 | 0.00 | 0.00 | 1012.6 | |
| 20260506212604 | 46 | 287 | 3.0 | 5.0 | 0.00 | 0.00 | 0.00 | 1012.6 | |
| 20260506211604 | 47 | 288 | 6.0 | 9.0 | 0.00 | 0.00 | 0.00 | 1012.6 | |
| 20260506211104 | 47 | 288 | 5.0 | 7.0 | 0.00 | 0.00 | 0.00 | 1012.6 | |
| 20260506210604 | 47 | 288 | 6.0 | 7.0 | 0.00 | 0.00 | 0.00 | 1012.6 | |
| 20260506210104 | 47 | 288 | 7.0 | 9.0 | 0.00 | 0.00 | 0.00 | 1012.4 | |
| 20260506205604 | 47 | 289 | 9.0 | 9.0 | 0.00 | 0.00 | 0.00 | 1012.4 | |
| 20260506205104 | 47 | 289 | 6.0 | 7.0 | 0.00 | 0.00 | 0.00 | 1012.4 | |
| 20260506204103 | 48 | 290 | 2.0 | 2.0 | 0.00 | 0.00 | 0.00 | 1012.4 | |
| 20260506203103 | 48 | 291 | 5.0 | 7.0 | 0.00 | 0.00 | 0.00 | 1012.4 | |
| 20260506202605 | 48 | 292 | 6.0 | 7.0 | 0.00 | 0.00 | 0.00 | 1012.4 | |
| 20260506202104 | 48 | 292 | 2.0 | 5.0 | 0.00 | 0.00 | 0.00 | 1012.4 | |
| 20260506201604 | 49 | 293 | 2.0 | 2.0 | 0.00 | 0.00 | 0.00 | 1012.4 |